sensor_id;sensor_type;location;lat;lon;timestamp;P1;durP1;ratioP1;P2;durP2;ratioP2
41293;SDS011;27037;52.010;4.446;2023-12-04T00:00:25;28.67;;;13.60;;
41293;SDS011;27037;52.010;4.446;2023-12-04T00:02:51;28.55;;;13.10;;
41293;SDS011;27037;52.010;4.446;2023-12-04T00:05:17;29.13;;;13.43;;
41293;SDS011;27037;52.010;4.446;2023-12-04T00:07:43;28.98;;;14.25;;
41293;SDS011;27037;52.010;4.446;2023-12-04T00:10:09;28.35;;;13.85;;
41293;SDS011;27037;52.010;4.446;2023-12-04T00:12:34;25.38;;;12.35;;
41293;SDS011;27037;52.010;4.446;2023-12-04T00:15:00;27.98;;;13.68;;
41293;SDS011;27037;52.010;4.446;2023-12-04T00:17:25;28.17;;;13.65;;
41293;SDS011;27037;52.010;4.446;2023-12-04T00:19:51;28.33;;;13.75;;
41293;SDS011;27037;52.010;4.446;2023-12-04T00:22:16;31.58;;;13.70;;
41293;SDS011;27037;52.010;4.446;2023-12-04T00:24:42;31.77;;;13.55;;
41293;SDS011;27037;52.010;4.446;2023-12-04T00:27:08;29.45;;;13.32;;
41293;SDS011;27037;52.010;4.446;2023-12-04T00:29:33;27.77;;;12.95;;
41293;SDS011;27037;52.010;4.446;2023-12-04T00:31:59;30.70;;;13.50;;
41293;SDS011;27037;52.010;4.446;2023-12-04T00:34:24;26.50;;;12.98;;
41293;SDS011;27037;52.010;4.446;2023-12-04T00:36:50;25.13;;;13.27;;
41293;SDS011;27037;52.010;4.446;2023-12-04T00:39:15;31.48;;;13.65;;
41293;SDS011;27037;52.010;4.446;2023-12-04T00:41:41;28.30;;;13.23;;
41293;SDS011;27037;52.010;4.446;2023-12-04T00:44:08;24.17;;;13.10;;
41293;SDS011;27037;52.010;4.446;2023-12-04T00:46:33;25.00;;;12.18;;
41293;SDS011;27037;52.010;4.446;2023-12-04T00:48:59;29.17;;;13.00;;
41293;SDS011;27037;52.010;4.446;2023-12-04T00:51:24;24.58;;;12.52;;
41293;SDS011;27037;52.010;4.446;2023-12-04T00:53:51;27.10;;;12.80;;
41293;SDS011;27037;52.010;4.446;2023-12-04T00:56:16;26.30;;;12.23;;
41293;SDS011;27037;52.010;4.446;2023-12-04T00:58:43;24.60;;;12.40;;
41293;SDS011;27037;52.010;4.446;2023-12-04T01:01:09;28.23;;;12.82;;
41293;SDS011;27037;52.010;4.446;2023-12-04T01:03:34;26.50;;;12.63;;
41293;SDS011;27037;52.010;4.446;2023-12-04T01:06:00;23.45;;;11.90;;
41293;SDS011;27037;52.010;4.446;2023-12-04T01:08:26;24.98;;;11.88;;
41293;SDS011;27037;52.010;4.446;2023-12-04T01:10:51;24.50;;;11.98;;
41293;SDS011;27037;52.010;4.446;2023-12-04T01:13:17;25.58;;;12.50;;
41293;SDS011;27037;52.010;4.446;2023-12-04T01:15:42;26.70;;;13.05;;
41293;SDS011;27037;52.010;4.446;2023-12-04T01:18:09;22.67;;;11.63;;
41293;SDS011;27037;52.010;4.446;2023-12-04T01:20:36;26.35;;;12.30;;
41293;SDS011;27037;52.010;4.446;2023-12-04T01:23:02;23.30;;;12.13;;
41293;SDS011;27037;52.010;4.446;2023-12-04T01:25:27;23.20;;;11.48;;
41293;SDS011;27037;52.010;4.446;2023-12-04T01:27:53;22.42;;;11.73;;
41293;SDS011;27037;52.010;4.446;2023-12-04T01:30:18;25.42;;;11.75;;
41293;SDS011;27037;52.010;4.446;2023-12-04T01:32:44;23.48;;;12.45;;
41293;SDS011;27037;52.010;4.446;2023-12-04T01:35:10;25.42;;;12.00;;
41293;SDS011;27037;52.010;4.446;2023-12-04T01:37:36;22.70;;;11.18;;
41293;SDS011;27037;52.010;4.446;2023-12-04T01:40:03;23.63;;;11.63;;
41293;SDS011;27037;52.010;4.446;2023-12-04T01:42:31;23.73;;;12.05;;
41293;SDS011;27037;52.010;4.446;2023-12-04T01:44:57;22.95;;;11.82;;
41293;SDS011;27037;52.010;4.446;2023-12-04T01:47:22;21.98;;;11.90;;
41293;SDS011;27037;52.010;4.446;2023-12-04T01:49:48;25.17;;;12.40;;
41293;SDS011;27037;52.010;4.446;2023-12-04T01:52:13;23.67;;;11.45;;
41293;SDS011;27037;52.010;4.446;2023-12-04T01:54:39;25.60;;;12.05;;
41293;SDS011;27037;52.010;4.446;2023-12-04T01:57:05;23.17;;;11.45;;
41293;SDS011;27037;52.010;4.446;2023-12-04T01:59:32;26.98;;;12.52;;
41293;SDS011;27037;52.010;4.446;2023-12-04T02:01:58;24.60;;;12.32;;
41293;SDS011;27037;52.010;4.446;2023-12-04T02:04:24;22.75;;;11.23;;
41293;SDS011;27037;52.010;4.446;2023-12-04T02:06:50;22.23;;;11.10;;
41293;SDS011;27037;52.010;4.446;2023-12-04T02:09:16;21.88;;;11.77;;
41293;SDS011;27037;52.010;4.446;2023-12-04T02:11:41;22.67;;;12.02;;
41293;SDS011;27037;52.010;4.446;2023-12-04T02:14:07;24.00;;;11.52;;
41293;SDS011;27037;52.010;4.446;2023-12-04T02:16:34;23.40;;;11.38;;
41293;SDS011;27037;52.010;4.446;2023-12-04T02:19:06;23.45;;;11.95;;
41293;SDS011;27037;52.010;4.446;2023-12-04T02:21:33;22.65;;;11.02;;
41293;SDS011;27037;52.010;4.446;2023-12-04T02:23:59;24.52;;;10.90;;
41293;SDS011;27037;52.010;4.446;2023-12-04T02:26:27;21.77;;;10.93;;
41293;SDS011;27037;52.010;4.446;2023-12-04T02:28:58;20.60;;;10.82;;
41293;SDS011;27037;52.010;4.446;2023-12-04T02:31:26;21.73;;;10.40;;
41293;SDS011;27037;52.010;4.446;2023-12-04T02:33:55;20.23;;;10.52;;
41293;SDS011;27037;52.010;4.446;2023-12-04T02:36:22;20.63;;;10.43;;
41293;SDS011;27037;52.010;4.446;2023-12-04T02:38:49;20.92;;;11.27;;
41293;SDS011;27037;52.010;4.446;2023-12-04T02:41:16;21.33;;;10.30;;
41293;SDS011;27037;52.010;4.446;2023-12-04T02:43:42;22.33;;;10.68;;
41293;SDS011;27037;52.010;4.446;2023-12-04T02:46:08;21.98;;;10.95;;
41293;SDS011;27037;52.010;4.446;2023-12-04T02:48:34;20.05;;;9.90;;
41293;SDS011;27037;52.010;4.446;2023-12-04T02:50:59;21.25;;;10.38;;
41293;SDS011;27037;52.010;4.446;2023-12-04T02:53:25;20.75;;;10.07;;
41293;SDS011;27037;52.010;4.446;2023-12-04T02:55:50;20.23;;;10.00;;
41293;SDS011;27037;52.010;4.446;2023-12-04T02:58:16;19.25;;;10.25;;
41293;SDS011;27037;52.010;4.446;2023-12-04T03:00:41;21.05;;;9.98;;
41293;SDS011;27037;52.010;4.446;2023-12-04T03:03:07;20.30;;;9.80;;
41293;SDS011;27037;52.010;4.446;2023-12-04T03:05:33;21.63;;;9.90;;
41293;SDS011;27037;52.010;4.446;2023-12-04T03:07:58;21.77;;;9.90;;
41293;SDS011;27037;52.010;4.446;2023-12-04T03:10:24;21.75;;;9.93;;
41293;SDS011;27037;52.010;4.446;2023-12-04T03:12:49;21.05;;;10.38;;
41293;SDS011;27037;52.010;4.446;2023-12-04T03:15:15;18.85;;;10.10;;
41293;SDS011;27037;52.010;4.446;2023-12-04T03:17:40;18.50;;;9.50;;
41293;SDS011;27037;52.010;4.446;2023-12-04T03:20:06;19.40;;;9.75;;
41293;SDS011;27037;52.010;4.446;2023-12-04T03:22:33;19.73;;;9.98;;
41293;SDS011;27037;52.010;4.446;2023-12-04T03:25:00;18.80;;;9.55;;
41293;SDS011;27037;52.010;4.446;2023-12-04T03:27:25;20.42;;;9.90;;
41293;SDS011;27037;52.010;4.446;2023-12-04T03:29:51;21.23;;;9.52;;
41293;SDS011;27037;52.010;4.446;2023-12-04T03:32:16;18.30;;;9.10;;
41293;SDS011;27037;52.010;4.446;2023-12-04T03:34:42;18.92;;;9.48;;
41293;SDS011;27037;52.010;4.446;2023-12-04T03:37:07;18.08;;;9.32;;
41293;SDS011;27037;52.010;4.446;2023-12-04T03:39:33;17.48;;;8.80;;
41293;SDS011;27037;52.010;4.446;2023-12-04T03:41:58;18.13;;;9.63;;
41293;SDS011;27037;52.010;4.446;2023-12-04T03:44:24;17.17;;;9.02;;
41293;SDS011;27037;52.010;4.446;2023-12-04T03:46:50;17.40;;;8.55;;
41293;SDS011;27037;52.010;4.446;2023-12-04T03:49:16;18.60;;;9.35;;
41293;SDS011;27037;52.010;4.446;2023-12-04T03:51:42;16.88;;;8.63;;
41293;SDS011;27037;52.010;4.446;2023-12-04T03:54:08;17.90;;;8.70;;
41293;SDS011;27037;52.010;4.446;2023-12-04T03:56:33;18.50;;;9.05;;
41293;SDS011;27037;52.010;4.446;2023-12-04T03:58:59;19.13;;;8.38;;
41293;SDS011;27037;52.010;4.446;2023-12-04T04:01:24;15.73;;;8.73;;
41293;SDS011;27037;52.010;4.446;2023-12-04T04:03:50;16.58;;;8.15;;
41293;SDS011;27037;52.010;4.446;2023-12-04T04:06:16;18.40;;;9.05;;
41293;SDS011;27037;52.010;4.446;2023-12-04T04:08:41;17.00;;;7.93;;
41293;SDS011;27037;52.010;4.446;2023-12-04T04:11:07;13.55;;;7.13;;
41293;SDS011;27037;52.010;4.446;2023-12-04T04:13:32;14.63;;;7.55;;
41293;SDS011;27037;52.010;4.446;2023-12-04T04:15:58;14.65;;;8.02;;
41293;SDS011;27037;52.010;4.446;2023-12-04T04:18:23;14.90;;;7.65;;
41293;SDS011;27037;52.010;4.446;2023-12-04T04:20:49;15.38;;;7.38;;
41293;SDS011;27037;52.010;4.446;2023-12-04T04:23:14;14.10;;;7.20;;
41293;SDS011;27037;52.010;4.446;2023-12-04T04:25:40;13.77;;;7.68;;
41293;SDS011;27037;52.010;4.446;2023-12-04T04:28:06;14.15;;;7.07;;
41293;SDS011;27037;52.010;4.446;2023-12-04T04:30:31;14.85;;;8.18;;
41293;SDS011;27037;52.010;4.446;2023-12-04T04:32:57;15.18;;;7.65;;
41293;SDS011;27037;52.010;4.446;2023-12-04T04:35:22;14.68;;;7.43;;
41293;SDS011;27037;52.010;4.446;2023-12-04T04:37:48;14.73;;;7.88;;
41293;SDS011;27037;52.010;4.446;2023-12-04T04:40:13;13.93;;;7.50;;
41293;SDS011;27037;52.010;4.446;2023-12-04T04:42:39;15.85;;;8.20;;
41293;SDS011;27037;52.010;4.446;2023-12-04T04:45:05;13.38;;;7.32;;
41293;SDS011;27037;52.010;4.446;2023-12-04T04:47:31;14.75;;;7.43;;
41293;SDS011;27037;52.010;4.446;2023-12-04T04:49:56;14.45;;;7.07;;
41293;SDS011;27037;52.010;4.446;2023-12-04T04:52:22;12.38;;;7.47;;
41293;SDS011;27037;52.010;4.446;2023-12-04T04:54:47;14.40;;;7.53;;
41293;SDS011;27037;52.010;4.446;2023-12-04T04:57:13;14.95;;;7.43;;
41293;SDS011;27037;52.010;4.446;2023-12-04T04:59:39;13.35;;;7.03;;
41293;SDS011;27037;52.010;4.446;2023-12-04T05:02:04;12.43;;;7.00;;
41293;SDS011;27037;52.010;4.446;2023-12-04T05:04:30;15.40;;;7.63;;
41293;SDS011;27037;52.010;4.446;2023-12-04T05:06:55;13.00;;;7.57;;
41293;SDS011;27037;52.010;4.446;2023-12-04T05:09:21;14.65;;;7.45;;
41293;SDS011;27037;52.010;4.446;2023-12-04T05:11:47;13.35;;;7.45;;
41293;SDS011;27037;52.010;4.446;2023-12-04T05:14:12;16.40;;;7.53;;
41293;SDS011;27037;52.010;4.446;2023-12-04T05:16:38;12.45;;;6.85;;
41293;SDS011;27037;52.010;4.446;2023-12-04T05:19:03;12.75;;;6.97;;
41293;SDS011;27037;52.010;4.446;2023-12-04T05:21:29;13.32;;;6.82;;
41293;SDS011;27037;52.010;4.446;2023-12-04T05:23:54;15.05;;;7.47;;
41293;SDS011;27037;52.010;4.446;2023-12-04T05:26:20;12.93;;;6.82;;
41293;SDS011;27037;52.010;4.446;2023-12-04T05:28:46;16.45;;;7.30;;
41293;SDS011;27037;52.010;4.446;2023-12-04T05:31:11;13.80;;;7.18;;
41293;SDS011;27037;52.010;4.446;2023-12-04T05:33:37;11.32;;;6.85;;
41293;SDS011;27037;52.010;4.446;2023-12-04T05:36:02;14.50;;;7.10;;
41293;SDS011;27037;52.010;4.446;2023-12-04T05:38:28;12.80;;;7.07;;
41293;SDS011;27037;52.010;4.446;2023-12-04T05:40:54;14.38;;;7.45;;
41293;SDS011;27037;52.010;4.446;2023-12-04T05:43:19;16.05;;;7.97;;
41293;SDS011;27037;52.010;4.446;2023-12-04T05:45:45;14.65;;;7.38;;
41293;SDS011;27037;52.010;4.446;2023-12-04T05:48:11;14.07;;;7.60;;
41293;SDS011;27037;52.010;4.446;2023-12-04T05:50:36;14.20;;;7.65;;
41293;SDS011;27037;52.010;4.446;2023-12-04T05:53:02;14.70;;;7.75;;
41293;SDS011;27037;52.010;4.446;2023-12-04T05:55:27;14.95;;;7.88;;
41293;SDS011;27037;52.010;4.446;2023-12-04T05:57:53;15.20;;;8.20;;
41293;SDS011;27037;52.010;4.446;2023-12-04T06:00:19;14.68;;;7.63;;
41293;SDS011;27037;52.010;4.446;2023-12-04T06:02:44;13.90;;;7.00;;
41293;SDS011;27037;52.010;4.446;2023-12-04T06:05:10;19.85;;;8.43;;
41293;SDS011;27037;52.010;4.446;2023-12-04T06:07:36;15.63;;;7.53;;
41293;SDS011;27037;52.010;4.446;2023-12-04T06:10:02;16.08;;;8.00;;
41293;SDS011;27037;52.010;4.446;2023-12-04T06:12:31;15.48;;;8.60;;
41293;SDS011;27037;52.010;4.446;2023-12-04T06:14:57;16.85;;;8.18;;
41293;SDS011;27037;52.010;4.446;2023-12-04T06:17:23;15.30;;;8.02;;
41293;SDS011;27037;52.010;4.446;2023-12-04T06:19:49;15.30;;;8.20;;
41293;SDS011;27037;52.010;4.446;2023-12-04T06:22:15;16.70;;;8.13;;
41293;SDS011;27037;52.010;4.446;2023-12-04T06:24:43;16.02;;;8.23;;
41293;SDS011;27037;52.010;4.446;2023-12-04T06:27:10;16.25;;;8.15;;
41293;SDS011;27037;52.010;4.446;2023-12-04T06:29:38;15.65;;;8.45;;
41293;SDS011;27037;52.010;4.446;2023-12-04T06:32:04;18.23;;;9.32;;
41293;SDS011;27037;52.010;4.446;2023-12-04T06:34:30;14.63;;;8.35;;
41293;SDS011;27037;52.010;4.446;2023-12-04T06:36:56;17.77;;;8.75;;
41293;SDS011;27037;52.010;4.446;2023-12-04T06:39:22;16.67;;;8.48;;
41293;SDS011;27037;52.010;4.446;2023-12-04T06:41:50;18.13;;;8.80;;
41293;SDS011;27037;52.010;4.446;2023-12-04T06:44:16;17.77;;;8.38;;
41293;SDS011;27037;52.010;4.446;2023-12-04T06:46:41;18.70;;;8.57;;
41293;SDS011;27037;52.010;4.446;2023-12-04T06:49:12;15.50;;;7.97;;
41293;SDS011;27037;52.010;4.446;2023-12-04T06:51:42;16.00;;;8.98;;
41293;SDS011;27037;52.010;4.446;2023-12-04T06:54:08;18.60;;;9.23;;
41293;SDS011;27037;52.010;4.446;2023-12-04T06:56:33;18.83;;;8.93;;
41293;SDS011;27037;52.010;4.446;2023-12-04T06:58:59;17.77;;;7.97;;
41293;SDS011;27037;52.010;4.446;2023-12-04T07:01:24;15.98;;;8.60;;
41293;SDS011;27037;52.010;4.446;2023-12-04T07:03:50;17.73;;;9.13;;
41293;SDS011;27037;52.010;4.446;2023-12-04T07:06:16;21.30;;;8.98;;
41293;SDS011;27037;52.010;4.446;2023-12-04T07:08:41;16.33;;;8.18;;
41293;SDS011;27037;52.010;4.446;2023-12-04T07:11:07;16.65;;;8.02;;
41293;SDS011;27037;52.010;4.446;2023-12-04T07:13:33;13.93;;;8.02;;
41293;SDS011;27037;52.010;4.446;2023-12-04T07:15:59;15.80;;;8.20;;
41293;SDS011;27037;52.010;4.446;2023-12-04T07:18:25;15.15;;;8.23;;
41293;SDS011;27037;52.010;4.446;2023-12-04T07:20:50;14.57;;;7.95;;
41293;SDS011;27037;52.010;4.446;2023-12-04T07:23:16;15.50;;;7.78;;
41293;SDS011;27037;52.010;4.446;2023-12-04T07:25:42;14.27;;;7.68;;
41293;SDS011;27037;52.010;4.446;2023-12-04T07:28:07;14.30;;;7.50;;
41293;SDS011;27037;52.010;4.446;2023-12-04T07:30:33;17.52;;;8.43;;
41293;SDS011;27037;52.010;4.446;2023-12-04T07:32:58;15.00;;;8.32;;
41293;SDS011;27037;52.010;4.446;2023-12-04T07:35:25;12.15;;;7.05;;
41293;SDS011;27037;52.010;4.446;2023-12-04T07:37:51;13.73;;;7.60;;
41293;SDS011;27037;52.010;4.446;2023-12-04T07:40:17;12.70;;;7.50;;
41293;SDS011;27037;52.010;4.446;2023-12-04T07:42:43;14.00;;;7.65;;
41293;SDS011;27037;52.010;4.446;2023-12-04T07:45:09;15.13;;;7.60;;
41293;SDS011;27037;52.010;4.446;2023-12-04T07:47:35;15.50;;;7.72;;
41293;SDS011;27037;52.010;4.446;2023-12-04T07:50:01;13.27;;;7.68;;
41293;SDS011;27037;52.010;4.446;2023-12-04T07:52:27;17.15;;;8.25;;
41293;SDS011;27037;52.010;4.446;2023-12-04T07:54:52;13.43;;;7.70;;
41293;SDS011;27037;52.010;4.446;2023-12-04T07:57:18;11.55;;;7.43;;
41293;SDS011;27037;52.010;4.446;2023-12-04T07:59:44;12.73;;;7.00;;
41293;SDS011;27037;52.010;4.446;2023-12-04T08:02:09;15.00;;;7.72;;
41293;SDS011;27037;52.010;4.446;2023-12-04T08:04:35;14.27;;;7.10;;
41293;SDS011;27037;52.010;4.446;2023-12-04T08:07:01;14.07;;;7.57;;
41293;SDS011;27037;52.010;4.446;2023-12-04T08:09:27;12.57;;;7.15;;
41293;SDS011;27037;52.010;4.446;2023-12-04T08:11:52;11.40;;;6.97;;
41293;SDS011;27037;52.010;4.446;2023-12-04T08:14:18;12.90;;;7.20;;
41293;SDS011;27037;52.010;4.446;2023-12-04T08:16:44;11.98;;;7.18;;
41293;SDS011;27037;52.010;4.446;2023-12-04T08:19:09;12.90;;;7.43;;
41293;SDS011;27037;52.010;4.446;2023-12-04T08:21:35;11.73;;;6.97;;
41293;SDS011;27037;52.010;4.446;2023-12-04T08:24:00;12.10;;;6.82;;
41293;SDS011;27037;52.010;4.446;2023-12-04T08:26:26;13.15;;;7.28;;
41293;SDS011;27037;52.010;4.446;2023-12-04T08:28:52;12.93;;;7.28;;
41293;SDS011;27037;52.010;4.446;2023-12-04T08:31:17;13.50;;;7.60;;
41293;SDS011;27037;52.010;4.446;2023-12-04T08:33:43;12.32;;;7.20;;
41293;SDS011;27037;52.010;4.446;2023-12-04T08:36:10;13.02;;;7.30;;
41293;SDS011;27037;52.010;4.446;2023-12-04T08:38:36;15.82;;;7.68;;
41293;SDS011;27037;52.010;4.446;2023-12-04T08:41:03;11.93;;;6.85;;
41293;SDS011;27037;52.010;4.446;2023-12-04T08:43:29;15.82;;;7.90;;
41293;SDS011;27037;52.010;4.446;2023-12-04T08:45:55;13.77;;;7.22;;
41293;SDS011;27037;52.010;4.446;2023-12-04T08:48:20;12.43;;;7.38;;
41293;SDS011;27037;52.010;4.446;2023-12-04T08:50:47;11.82;;;6.68;;
41293;SDS011;27037;52.010;4.446;2023-12-04T08:53:13;12.05;;;7.53;;
41293;SDS011;27037;52.010;4.446;2023-12-04T08:55:38;14.35;;;7.25;;
41293;SDS011;27037;52.010;4.446;2023-12-04T08:58:04;13.35;;;7.35;;
41293;SDS011;27037;52.010;4.446;2023-12-04T09:00:29;12.02;;;7.43;;
41293;SDS011;27037;52.010;4.446;2023-12-04T09:02:55;13.38;;;7.22;;
41293;SDS011;27037;52.010;4.446;2023-12-04T09:05:21;15.05;;;7.35;;
41293;SDS011;27037;52.010;4.446;2023-12-04T09:07:47;14.73;;;7.65;;
41293;SDS011;27037;52.010;4.446;2023-12-04T09:10:12;12.43;;;7.20;;
41293;SDS011;27037;52.010;4.446;2023-12-04T09:12:39;14.23;;;7.10;;
41293;SDS011;27037;52.010;4.446;2023-12-04T09:15:05;13.52;;;6.93;;
41293;SDS011;27037;52.010;4.446;2023-12-04T09:17:31;13.05;;;7.60;;
41293;SDS011;27037;52.010;4.446;2023-12-04T09:19:57;12.75;;;7.43;;
41293;SDS011;27037;52.010;4.446;2023-12-04T09:22:22;13.32;;;7.50;;
41293;SDS011;27037;52.010;4.446;2023-12-04T09:24:48;13.23;;;7.28;;
41293;SDS011;27037;52.010;4.446;2023-12-04T09:27:14;11.60;;;6.68;;
41293;SDS011;27037;52.010;4.446;2023-12-04T09:29:40;14.05;;;7.40;;
41293;SDS011;27037;52.010;4.446;2023-12-04T09:32:06;15.30;;;7.43;;
41293;SDS011;27037;52.010;4.446;2023-12-04T09:34:32;12.77;;;6.97;;
41293;SDS011;27037;52.010;4.446;2023-12-04T09:36:57;13.48;;;7.03;;
41293;SDS011;27037;52.010;4.446;2023-12-04T09:39:23;14.20;;;7.55;;
41293;SDS011;27037;52.010;4.446;2023-12-04T09:41:49;13.70;;;7.82;;
41293;SDS011;27037;52.010;4.446;2023-12-04T09:44:15;14.13;;;7.05;;
41293;SDS011;27037;52.010;4.446;2023-12-04T09:46:41;12.30;;;6.88;;
41293;SDS011;27037;52.010;4.446;2023-12-04T09:49:08;13.10;;;7.20;;
41293;SDS011;27037;52.010;4.446;2023-12-04T09:51:34;12.60;;;7.82;;
41293;SDS011;27037;52.010;4.446;2023-12-04T09:54:01;12.88;;;6.95;;
41293;SDS011;27037;52.010;4.446;2023-12-04T09:56:31;14.55;;;7.45;;
41293;SDS011;27037;52.010;4.446;2023-12-04T09:58:58;13.57;;;7.82;;
41293;SDS011;27037;52.010;4.446;2023-12-04T10:01:25;12.15;;;7.20;;
41293;SDS011;27037;52.010;4.446;2023-12-04T10:03:52;13.20;;;7.45;;
41293;SDS011;27037;52.010;4.446;2023-12-04T10:06:18;15.23;;;7.65;;
41293;SDS011;27037;52.010;4.446;2023-12-04T10:08:44;13.52;;;7.15;;
41293;SDS011;27037;52.010;4.446;2023-12-04T10:11:12;13.38;;;7.38;;
41293;SDS011;27037;52.010;4.446;2023-12-04T10:13:40;13.68;;;7.55;;
41293;SDS011;27037;52.010;4.446;2023-12-04T10:16:06;13.25;;;7.07;;
41293;SDS011;27037;52.010;4.446;2023-12-04T10:18:32;12.43;;;6.78;;
41293;SDS011;27037;52.010;4.446;2023-12-04T10:20:58;14.43;;;7.30;;
41293;SDS011;27037;52.010;4.446;2023-12-04T10:23:37;11.38;;;7.00;;
41293;SDS011;27037;52.010;4.446;2023-12-04T10:26:04;12.93;;;7.50;;
41293;SDS011;27037;52.010;4.446;2023-12-04T10:28:30;12.13;;;7.05;;
41293;SDS011;27037;52.010;4.446;2023-12-04T10:30:55;13.10;;;6.97;;
41293;SDS011;27037;52.010;4.446;2023-12-04T10:33:21;11.98;;;6.97;;
41293;SDS011;27037;52.010;4.446;2023-12-04T10:35:50;11.50;;;7.10;;
41293;SDS011;27037;52.010;4.446;2023-12-04T10:38:16;12.32;;;6.70;;
41293;SDS011;27037;52.010;4.446;2023-12-04T10:40:43;11.55;;;7.10;;
41293;SDS011;27037;52.010;4.446;2023-12-04T10:45:37;13.15;;;7.05;;
41293;SDS011;27037;52.010;4.446;2023-12-04T10:48:07;13.23;;;6.68;;
41293;SDS011;27037;52.010;4.446;2023-12-04T10:50:34;11.52;;;6.93;;
41293;SDS011;27037;52.010;4.446;2023-12-04T10:53:04;11.05;;;6.38;;
41293;SDS011;27037;52.010;4.446;2023-12-04T10:55:30;11.27;;;6.53;;
41293;SDS011;27037;52.010;4.446;2023-12-04T10:57:56;12.60;;;7.45;;
41293;SDS011;27037;52.010;4.446;2023-12-04T11:00:24;11.00;;;6.90;;
41293;SDS011;27037;52.010;4.446;2023-12-04T11:02:50;9.43;;;6.20;;
41293;SDS011;27037;52.010;4.446;2023-12-04T11:05:20;10.70;;;6.57;;
41293;SDS011;27037;52.010;4.446;2023-12-04T11:07:51;10.15;;;6.43;;
41293;SDS011;27037;52.010;4.446;2023-12-04T11:10:21;12.63;;;6.40;;
41293;SDS011;27037;52.010;4.446;2023-12-04T11:12:51;13.00;;;6.43;;
41293;SDS011;27037;52.010;4.446;2023-12-04T11:15:23;12.52;;;6.40;;
41293;SDS011;27037;52.010;4.446;2023-12-04T11:17:51;10.50;;;6.40;;
41293;SDS011;27037;52.010;4.446;2023-12-04T11:20:24;11.40;;;6.43;;
41293;SDS011;27037;52.010;4.446;2023-12-04T11:22:52;10.93;;;6.55;;
41293;SDS011;27037;52.010;4.446;2023-12-04T11:25:18;12.77;;;6.80;;
41293;SDS011;27037;52.010;4.446;2023-12-04T11:27:48;15.20;;;6.70;;
41293;SDS011;27037;52.010;4.446;2023-12-04T11:30:14;9.98;;;6.40;;
41293;SDS011;27037;52.010;4.446;2023-12-04T11:32:50;9.02;;;6.18;;
41293;SDS011;27037;52.010;4.446;2023-12-04T11:37:43;12.95;;;6.82;;
41293;SDS011;27037;52.010;4.446;2023-12-04T11:40:12;12.65;;;6.38;;
41293;SDS011;27037;52.010;4.446;2023-12-04T11:42:40;10.02;;;6.38;;
41293;SDS011;27037;52.010;4.446;2023-12-04T11:45:07;12.32;;;6.20;;
41293;SDS011;27037;52.010;4.446;2023-12-04T11:48:06;11.13;;;6.70;;
41293;SDS011;27037;52.010;4.446;2023-12-04T11:50:25;12.10;;;6.75;;
41293;SDS011;27037;52.010;4.446;2023-12-04T11:52:51;12.80;;;7.00;;
41293;SDS011;27037;52.010;4.446;2023-12-04T11:55:18;13.13;;;6.40;;
41293;SDS011;27037;52.010;4.446;2023-12-04T11:57:47;12.02;;;6.35;;
41293;SDS011;27037;52.010;4.446;2023-12-04T12:05:12;10.13;;;6.43;;
41293;SDS011;27037;52.010;4.446;2023-12-04T12:07:38;9.93;;;6.13;;
41293;SDS011;27037;52.010;4.446;2023-12-04T12:10:04;10.73;;;6.40;;
41293;SDS011;27037;52.010;4.446;2023-12-04T12:12:30;12.00;;;6.38;;
41293;SDS011;27037;52.010;4.446;2023-12-04T12:14:57;10.30;;;6.55;;
41293;SDS011;27037;52.010;4.446;2023-12-04T12:17:23;10.90;;;6.97;;
41293;SDS011;27037;52.010;4.446;2023-12-04T12:19:50;13.05;;;6.45;;
41293;SDS011;27037;52.010;4.446;2023-12-04T12:22:15;13.48;;;6.75;;
41293;SDS011;27037;52.010;4.446;2023-12-04T12:24:42;9.55;;;6.50;;
41293;SDS011;27037;52.010;4.446;2023-12-04T12:27:07;10.00;;;6.38;;
41293;SDS011;27037;52.010;4.446;2023-12-04T12:29:33;10.82;;;6.80;;
41293;SDS011;27037;52.010;4.446;2023-12-04T12:31:58;9.57;;;6.57;;
41293;SDS011;27037;52.010;4.446;2023-12-04T12:34:24;9.10;;;6.15;;
41293;SDS011;27037;52.010;4.446;2023-12-04T12:36:49;10.15;;;6.35;;
41293;SDS011;27037;52.010;4.446;2023-12-04T12:39:15;11.23;;;7.00;;
41293;SDS011;27037;52.010;4.446;2023-12-04T12:41:49;10.73;;;6.68;;
41293;SDS011;27037;52.010;4.446;2023-12-04T12:44:15;11.13;;;6.72;;
41293;SDS011;27037;52.010;4.446;2023-12-04T12:46:41;10.40;;;6.97;;
41293;SDS011;27037;52.010;4.446;2023-12-04T12:49:06;12.60;;;7.10;;
41293;SDS011;27037;52.010;4.446;2023-12-04T12:51:32;10.70;;;6.72;;
41293;SDS011;27037;52.010;4.446;2023-12-04T12:53:58;10.10;;;6.80;;
41293;SDS011;27037;52.010;4.446;2023-12-04T12:56:27;12.82;;;7.47;;
41293;SDS011;27037;52.010;4.446;2023-12-04T12:58:53;10.80;;;7.00;;
41293;SDS011;27037;52.010;4.446;2023-12-04T13:01:19;12.90;;;6.90;;
41293;SDS011;27037;52.010;4.446;2023-12-04T13:03:50;12.05;;;7.45;;
41293;SDS011;27037;52.010;4.446;2023-12-04T13:06:15;13.43;;;6.68;;
41293;SDS011;27037;52.010;4.446;2023-12-04T13:08:42;14.95;;;7.70;;
41293;SDS011;27037;52.010;4.446;2023-12-04T13:11:08;14.05;;;7.30;;
41293;SDS011;27037;52.010;4.446;2023-12-04T13:13:33;13.20;;;6.97;;
41293;SDS011;27037;52.010;4.446;2023-12-04T13:15:59;12.30;;;7.18;;
41293;SDS011;27037;52.010;4.446;2023-12-04T13:18:25;13.27;;;6.95;;
41293;SDS011;27037;52.010;4.446;2023-12-04T13:20:50;12.05;;;7.07;;
41293;SDS011;27037;52.010;4.446;2023-12-04T13:23:16;11.38;;;7.03;;
41293;SDS011;27037;52.010;4.446;2023-12-04T13:25:41;13.48;;;7.70;;
41293;SDS011;27037;52.010;4.446;2023-12-04T13:28:08;12.98;;;7.45;;
41293;SDS011;27037;52.010;4.446;2023-12-04T13:30:34;13.40;;;7.57;;
41293;SDS011;27037;52.010;4.446;2023-12-04T13:33:00;13.13;;;7.82;;
41293;SDS011;27037;52.010;4.446;2023-12-04T13:35:25;15.73;;;7.95;;
41293;SDS011;27037;52.010;4.446;2023-12-04T13:37:51;14.93;;;8.10;;
41293;SDS011;27037;52.010;4.446;2023-12-04T13:40:20;12.40;;;8.07;;
41293;SDS011;27037;52.010;4.446;2023-12-04T13:42:46;14.27;;;8.07;;
41293;SDS011;27037;52.010;4.446;2023-12-04T13:45:30;15.52;;;8.32;;
41293;SDS011;27037;52.010;4.446;2023-12-04T13:47:56;15.63;;;9.32;;
41293;SDS011;27037;52.010;4.446;2023-12-04T13:50:22;15.75;;;9.20;;
41293;SDS011;27037;52.010;4.446;2023-12-04T13:52:48;16.40;;;9.32;;
41293;SDS011;27037;52.010;4.446;2023-12-04T13:55:21;13.15;;;8.80;;
41293;SDS011;27037;52.010;4.446;2023-12-04T13:58:01;17.25;;;9.20;;
41293;SDS011;27037;52.010;4.446;2023-12-04T14:00:27;15.82;;;9.85;;
41293;SDS011;27037;52.010;4.446;2023-12-04T14:02:52;20.33;;;9.77;;
41293;SDS011;27037;52.010;4.446;2023-12-04T14:05:19;17.00;;;9.73;;
41293;SDS011;27037;52.010;4.446;2023-12-04T14:07:46;16.65;;;9.75;;
41293;SDS011;27037;52.010;4.446;2023-12-04T14:10:12;17.33;;;9.73;;
41293;SDS011;27037;52.010;4.446;2023-12-04T14:12:39;17.58;;;10.18;;
41293;SDS011;27037;52.010;4.446;2023-12-04T14:15:08;17.67;;;10.15;;
41293;SDS011;27037;52.010;4.446;2023-12-04T14:17:34;15.68;;;10.15;;
41293;SDS011;27037;52.010;4.446;2023-12-04T14:19:59;18.90;;;10.32;;
41293;SDS011;27037;52.010;4.446;2023-12-04T14:22:25;19.50;;;10.23;;
41293;SDS011;27037;52.010;4.446;2023-12-04T14:24:50;18.45;;;10.25;;
41293;SDS011;27037;52.010;4.446;2023-12-04T14:27:16;16.58;;;9.88;;
41293;SDS011;27037;52.010;4.446;2023-12-04T14:29:43;18.13;;;9.90;;
41293;SDS011;27037;52.010;4.446;2023-12-04T14:32:09;17.42;;;9.80;;
41293;SDS011;27037;52.010;4.446;2023-12-04T14:34:35;16.17;;;9.95;;